createdAt,value
2019-01-19T00:00:13.613Z,0.00
2019-01-19T00:01:13.729Z,0.00
2019-01-19T00:02:13.622Z,0.00
2019-01-19T00:03:13.662Z,0.00
2019-01-19T00:04:13.668Z,0.00
2019-01-19T00:05:13.696Z,0.00
2019-01-19T00:06:13.745Z,0.00
2019-01-19T00:07:13.703Z,0.00
2019-01-19T00:08:13.724Z,0.00
2019-01-19T00:09:13.763Z,0.00
2019-01-19T00:10:13.759Z,0.00
2019-01-19T00:11:13.818Z,0.00
2019-01-19T00:12:13.786Z,0.00
2019-01-19T00:13:13.803Z,0.00
2019-01-19T00:14:13.824Z,0.00
2019-01-19T00:15:13.865Z,0.00
2019-01-19T00:16:13.980Z,0.00
2019-01-19T00:17:13.893Z,0.00
2019-01-19T00:18:13.901Z,0.00
2019-01-19T00:19:13.916Z,0.00
2019-01-19T00:20:13.939Z,0.00
2019-01-19T00:21:14.011Z,0.00
2019-01-19T00:22:13.979Z,0.00
2019-01-19T00:23:13.975Z,0.00
2019-01-19T00:24:13.991Z,0.00
2019-01-19T00:25:14.003Z,0.00
2019-01-19T00:26:14.117Z,0.00
2019-01-19T00:27:14.039Z,0.00
2019-01-19T00:28:14.059Z,0.00
2019-01-19T00:29:14.074Z,0.00
2019-01-19T00:30:14.093Z,0.00
2019-01-19T00:31:14.216Z,0.00
2019-01-19T00:32:14.134Z,0.00
2019-01-19T00:33:14.149Z,0.00
2019-01-19T00:34:14.178Z,0.00
2019-01-19T00:35:18.014Z,0.00
2019-01-19T00:36:14.348Z,0.00
2019-01-19T00:37:14.224Z,0.00
2019-01-19T00:38:14.231Z,0.00
2019-01-19T00:39:14.242Z,0.00
2019-01-19T00:40:14.278Z,0.00
2019-01-19T00:41:14.380Z,0.00
2019-01-19T00:42:14.291Z,0.00
2019-01-19T00:43:14.319Z,0.00
2019-01-19T00:44:14.332Z,0.00
2019-01-19T00:45:14.354Z,0.00
2019-01-19T00:46:14.446Z,0.00
2019-01-19T00:47:14.396Z,0.00
2019-01-19T00:48:14.404Z,0.00
2019-01-19T00:49:14.428Z,0.00
2019-01-19T00:50:14.432Z,0.00
2019-01-19T00:51:14.612Z,0.00
2019-01-19T00:52:14.453Z,0.00
2019-01-19T00:53:14.494Z,0.00
2019-01-19T00:54:14.488Z,0.00
2019-01-19T00:55:14.528Z,0.00
2019-01-19T00:56:14.575Z,0.00
2019-01-19T00:57:14.565Z,0.00
2019-01-19T00:58:14.567Z,0.00
2019-01-19T00:59:14.592Z,0.00
2019-01-19T01:00:14.593Z,0.00
2019-01-19T01:01:14.834Z,0.00
2019-01-19T01:02:14.747Z,0.00
2019-01-19T01:03:14.641Z,0.00
2019-01-19T01:04:14.724Z,0.00
2019-01-19T01:05:14.705Z,0.00
2019-01-19T01:06:14.852Z,0.00
2019-01-19T01:07:14.708Z,0.00
2019-01-19T01:08:14.852Z,0.00
2019-01-19T01:09:14.741Z,0.00
2019-01-19T01:10:14.756Z,0.00
2019-01-19T01:11:14.884Z,0.00
2019-01-19T01:12:14.793Z,0.00
2019-01-19T01:13:14.804Z,0.00
2019-01-19T01:14:14.952Z,0.00
2019-01-19T01:15:14.967Z,0.00
2019-01-19T01:16:15.011Z,0.00
2019-01-19T01:17:14.886Z,0.00
2019-01-19T01:18:14.900Z,0.00
2019-01-19T01:19:14.931Z,0.00
2019-01-19T01:20:14.923Z,0.00
2019-01-19T01:21:15.071Z,0.00
2019-01-19T01:22:14.955Z,0.00
2019-01-19T01:23:14.978Z,0.00
2019-01-19T01:24:14.988Z,0.00
2019-01-19T01:25:15.011Z,0.00
2019-01-19T01:26:15.095Z,0.00
2019-01-19T01:27:15.049Z,0.00
2019-01-19T01:28:15.067Z,0.00
2019-01-19T01:29:15.083Z,0.00
2019-01-19T01:30:15.098Z,0.00
2019-01-19T01:31:15.265Z,0.00
2019-01-19T01:32:15.135Z,0.00
2019-01-19T01:33:15.268Z,0.00
2019-01-19T01:34:15.182Z,0.00
2019-01-19T01:35:15.176Z,0.00
2019-01-19T01:36:15.293Z,0.00
2019-01-19T01:37:15.201Z,0.00
2019-01-19T01:38:15.216Z,0.00
2019-01-19T01:39:15.282Z,0.00
2019-01-19T01:40:15.395Z,0.00
2019-01-19T01:41:15.381Z,0.00
2019-01-19T01:42:15.417Z,0.00
2019-01-19T01:43:15.437Z,0.00
2019-01-19T01:44:15.338Z,0.00
2019-01-19T01:45:15.361Z,0.00
2019-01-19T01:46:15.594Z,0.00
2019-01-19T01:47:15.407Z,0.00
2019-01-19T01:48:15.403Z,0.00
2019-01-19T01:49:15.423Z,0.00
2019-01-19T01:50:15.423Z,0.00
2019-01-19T01:51:15.608Z,0.00
2019-01-19T01:52:15.585Z,0.00
2019-01-19T01:53:15.493Z,0.00
2019-01-19T01:54:15.504Z,0.00
2019-01-19T01:55:15.509Z,0.00
2019-01-19T01:56:15.623Z,0.00
2019-01-19T01:57:15.560Z,0.00
2019-01-19T01:58:15.560Z,0.00
2019-01-19T01:59:15.573Z,0.00
2019-01-19T02:00:15.594Z,0.00
2019-01-19T02:01:15.707Z,0.00
2019-01-19T02:02:15.646Z,0.00
2019-01-19T02:03:15.662Z,0.00
2019-01-19T02:04:15.651Z,0.00
2019-01-19T02:05:15.698Z,0.00
2019-01-19T02:06:15.810Z,0.00
2019-01-19T02:07:15.707Z,0.00
2019-01-19T02:08:15.748Z,0.00
2019-01-19T02:09:15.766Z,0.00
2019-01-19T02:10:15.774Z,0.00
2019-01-19T02:11:15.813Z,0.00
2019-01-19T02:12:15.824Z,0.00
2019-01-19T02:13:15.837Z,0.00
2019-01-19T02:14:15.833Z,0.00
2019-01-19T02:15:15.848Z,0.00
2019-01-19T02:16:15.919Z,0.00
2019-01-19T02:17:16.013Z,0.00
2019-01-19T02:18:16.015Z,0.00
2019-01-19T02:19:15.917Z,0.00
2019-01-19T02:20:15.941Z,0.00
2019-01-19T02:21:16.106Z,0.00
2019-01-19T02:22:15.978Z,0.00
2019-01-19T02:23:16.031Z,0.00
2019-01-19T02:24:16.014Z,0.00
2019-01-19T02:25:16.138Z,0.00
2019-01-19T02:26:16.072Z,0.00
2019-01-19T02:27:16.167Z,0.00
2019-01-19T02:28:16.184Z,0.00
2019-01-19T02:29:16.100Z,0.00
2019-01-19T02:30:16.096Z,0.00
2019-01-19T02:31:16.207Z,0.00
2019-01-19T02:32:16.145Z,0.00
2019-01-19T02:33:16.135Z,0.00
2019-01-19T02:34:16.161Z,0.00
2019-01-19T02:35:16.170Z,0.00
2019-01-19T02:36:16.238Z,0.00
2019-01-19T02:37:16.226Z,0.00
2019-01-19T02:38:16.352Z,0.00
2019-01-19T02:39:16.260Z,0.00
2019-01-19T02:40:16.535Z,0.00
2019-01-19T02:41:16.287Z,0.00
2019-01-19T02:42:16.296Z,0.00
2019-01-19T02:43:16.434Z,0.00
2019-01-19T02:44:16.332Z,0.00
2019-01-19T02:45:16.507Z,0.00
2019-01-19T02:46:16.367Z,0.00
2019-01-19T02:47:16.426Z,0.00
2019-01-19T02:48:16.406Z,0.00
2019-01-19T02:49:16.406Z,0.00
2019-01-19T02:50:16.547Z,0.00
2019-01-19T02:51:16.464Z,0.00
2019-01-19T02:52:16.479Z,0.00
2019-01-19T02:53:16.481Z,0.00
2019-01-19T02:54:16.629Z,0.00
2019-01-19T02:55:16.786Z,0.00
2019-01-19T02:56:16.663Z,0.00
2019-01-19T02:57:16.563Z,0.00
2019-01-19T02:58:16.696Z,0.00
2019-01-19T02:59:16.596Z,0.00
2019-01-19T03:00:16.755Z,0.00
2019-01-19T03:01:16.644Z,0.00
2019-01-19T03:02:16.750Z,0.00
2019-01-19T03:03:16.828Z,0.00
2019-01-19T03:04:16.680Z,0.00
2019-01-19T03:05:16.746Z,0.00
2019-01-19T03:06:16.685Z,0.00
2019-01-19T03:07:16.702Z,0.00
2019-01-19T03:08:16.854Z,0.00
2019-01-19T03:09:16.754Z,0.00
2019-01-19T03:10:16.823Z,0.00
2019-01-19T03:11:16.781Z,0.00
2019-01-19T03:12:16.926Z,0.00
2019-01-19T03:13:16.963Z,0.00
2019-01-19T03:14:16.827Z,0.00
2019-01-19T03:15:16.848Z,0.00
2019-01-19T03:16:16.869Z,0.00
2019-01-19T03:17:16.931Z,0.00
2019-01-19T03:18:17.021Z,0.00
2019-01-19T03:19:17.028Z,0.00
2019-01-19T03:20:17.048Z,0.00
2019-01-19T03:21:17.066Z,0.00
2019-01-19T03:22:16.992Z,0.00
2019-01-19T03:23:17.199Z,0.00
2019-01-19T03:24:16.994Z,0.00
2019-01-19T03:25:17.132Z,0.00
2019-01-19T03:26:17.159Z,0.00
2019-01-19T03:27:17.042Z,0.00
2019-01-19T03:28:17.235Z,0.00
2019-01-19T03:29:17.092Z,0.00
2019-01-19T03:30:17.213Z,0.00
2019-01-19T03:31:17.158Z,0.00
2019-01-19T03:32:17.156Z,0.00
2019-01-19T03:33:17.206Z,0.00
2019-01-19T03:34:17.282Z,0.00
2019-01-19T03:35:17.185Z,0.00
2019-01-19T03:36:17.315Z,0.00
2019-01-19T03:37:17.208Z,0.00
2019-01-19T03:38:17.283Z,0.00
2019-01-19T03:39:17.267Z,0.00
2019-01-19T03:40:17.392Z,0.00
2019-01-19T03:41:17.281Z,0.00
2019-01-19T03:42:17.412Z,0.00
2019-01-19T03:43:17.577Z,0.00
2019-01-19T03:44:17.445Z,0.00
2019-01-19T03:45:17.365Z,0.00
2019-01-19T03:46:17.488Z,0.00
2019-01-19T03:47:17.494Z,0.00
2019-01-19T03:48:17.479Z,0.00
2019-01-19T03:49:17.527Z,0.00
2019-01-19T03:50:17.542Z,0.00
2019-01-19T03:51:17.434Z,0.00
2019-01-19T03:52:17.467Z,0.00
2019-01-19T03:53:17.627Z,0.00
2019-01-19T03:54:17.491Z,0.00
2019-01-19T03:55:17.627Z,0.00
2019-01-19T03:56:17.529Z,0.00
2019-01-19T03:57:17.525Z,0.00
2019-01-19T03:58:17.652Z,0.00
2019-01-19T03:59:17.599Z,0.00
2019-01-19T04:00:17.719Z,0.00
2019-01-19T04:01:17.735Z,0.00
2019-01-19T04:02:17.637Z,0.00
2019-01-19T04:03:17.698Z,0.00
2019-01-19T04:04:17.655Z,0.00
2019-01-19T04:05:17.674Z,0.00
2019-01-19T04:06:17.685Z,0.00
2019-01-19T04:07:17.733Z,0.00
2019-01-19T04:08:17.983Z,0.00
2019-01-19T04:09:17.853Z,0.00
2019-01-19T04:10:17.871Z,0.00
2019-01-19T04:11:17.884Z,0.00
2019-01-19T04:12:17.803Z,0.00
2019-01-19T04:13:17.873Z,0.00
2019-01-19T04:14:17.818Z,0.00
2019-01-19T04:15:17.834Z,0.00
2019-01-19T04:16:17.976Z,0.00
2019-01-19T04:17:17.876Z,0.00
2019-01-19T04:18:18.097Z,0.00
2019-01-19T04:19:17.890Z,0.00
2019-01-19T04:20:17.905Z,0.00
2019-01-19T04:21:17.941Z,0.00
2019-01-19T04:22:17.957Z,0.00
2019-01-19T04:23:18.052Z,0.00
2019-01-19T04:24:17.965Z,0.00
2019-01-19T04:25:17.982Z,0.00
2019-01-19T04:26:18.130Z,0.00
2019-01-19T04:27:18.012Z,0.00
2019-01-19T04:28:18.261Z,0.00
2019-01-19T04:29:18.182Z,0.00
2019-01-19T04:30:18.198Z,0.00
2019-01-19T04:31:18.108Z,0.00
2019-01-19T04:32:18.122Z,0.00
2019-01-19T04:33:18.403Z,0.00
2019-01-19T04:34:18.136Z,0.00
2019-01-19T04:35:18.287Z,0.00
2019-01-19T04:36:21.704Z,0.00
2019-01-19T04:37:18.320Z,0.00
2019-01-19T04:38:18.321Z,0.00
2019-01-19T04:39:18.339Z,0.00
2019-01-19T04:40:18.253Z,0.00
2019-01-19T04:41:18.268Z,0.00
2019-01-19T04:42:18.287Z,0.00
2019-01-19T04:43:18.564Z,0.00
2019-01-19T04:44:18.353Z,0.00
2019-01-19T04:45:18.329Z,0.00
2019-01-19T04:46:18.348Z,0.00
2019-01-19T04:47:18.366Z,0.00
2019-01-19T04:48:18.482Z,0.00
2019-01-19T04:49:18.506Z,0.00
2019-01-19T04:50:18.528Z,0.00
2019-01-19T04:51:18.415Z,0.00
2019-01-19T04:52:18.428Z,0.00
2019-01-19T04:53:18.560Z,0.00
2019-01-19T04:54:18.451Z,0.00
2019-01-19T04:55:18.503Z,0.00
2019-01-19T04:56:18.626Z,0.00
2019-01-19T04:57:18.523Z,0.00
2019-01-19T04:58:18.550Z,0.00
2019-01-19T04:59:18.701Z,0.00
2019-01-19T05:00:18.565Z,0.00
2019-01-19T05:01:18.601Z,0.00
2019-01-19T05:02:18.616Z,0.00
2019-01-19T05:03:18.623Z,0.00
2019-01-19T05:04:18.779Z,0.00
2019-01-19T05:05:18.771Z,0.00
2019-01-19T05:06:20.341Z,0.00
2019-01-19T05:07:18.799Z,0.00
2019-01-19T05:08:18.717Z,0.00
2019-01-19T05:09:18.987Z,0.00
2019-01-19T05:10:18.746Z,0.00
2019-01-19T05:11:18.760Z,0.00
2019-01-19T05:12:18.882Z,0.00
2019-01-19T05:13:18.786Z,0.00
2019-01-19T05:14:18.963Z,0.00
2019-01-19T05:15:18.856Z,0.00
2019-01-19T05:16:18.837Z,0.00
2019-01-19T05:17:18.873Z,0.00
2019-01-19T05:18:18.871Z,0.00
2019-01-19T05:19:19.147Z,0.00
2019-01-19T05:20:19.017Z,0.00
2019-01-19T05:21:19.031Z,0.00
2019-01-19T05:22:18.930Z,0.00
2019-01-19T05:23:19.065Z,0.00
2019-01-19T05:24:19.180Z,0.00
2019-01-19T05:25:18.974Z,0.00
2019-01-19T05:26:19.017Z,0.00
2019-01-19T05:27:19.015Z,0.00
2019-01-19T05:28:19.041Z,0.00
2019-01-19T05:29:19.205Z,0.00
2019-01-19T05:30:19.061Z,0.00
2019-01-19T05:31:19.065Z,0.00
2019-01-19T05:32:19.082Z,0.00
2019-01-19T05:33:19.098Z,0.00
2019-01-19T05:34:19.161Z,0.00
2019-01-19T05:35:19.158Z,0.00
2019-01-19T05:36:19.149Z,0.00
2019-01-19T05:37:19.173Z,0.00
2019-01-19T05:38:19.319Z,0.00
2019-01-19T05:39:19.330Z,0.00
2019-01-19T05:40:19.229Z,0.00
2019-01-19T05:41:19.370Z,0.00
2019-01-19T05:42:19.378Z,0.00
2019-01-19T05:43:19.392Z,0.00
2019-01-19T05:44:19.470Z,0.00
2019-01-19T05:45:19.438Z,0.00
2019-01-19T05:46:21.458Z,0.00
2019-01-19T05:47:19.346Z,0.00
2019-01-19T05:48:19.473Z,0.00
2019-01-19T05:49:19.543Z,0.00
2019-01-19T05:50:19.515Z,0.00
2019-01-19T05:51:19.441Z,0.00
2019-01-19T05:52:19.439Z,0.00
2019-01-19T05:53:19.483Z,0.00
2019-01-19T05:54:19.457Z,0.00
2019-01-19T05:55:19.487Z,0.00
2019-01-19T05:56:19.499Z,0.00
2019-01-19T05:57:19.517Z,0.00
2019-01-19T05:58:19.595Z,0.00
2019-01-19T05:59:19.528Z,0.00
2019-01-19T06:00:19.675Z,0.00
2019-01-19T06:01:19.691Z,0.00
2019-01-19T06:02:19.582Z,0.00
2019-01-19T06:03:19.722Z,0.00
2019-01-19T06:04:19.628Z,0.00
2019-01-19T06:05:19.637Z,0.00
2019-01-19T06:06:19.655Z,0.00
2019-01-19T06:07:19.789Z,0.00
2019-01-19T06:08:19.757Z,0.00
2019-01-19T06:09:19.826Z,0.00
2019-01-19T06:10:19.735Z,0.00
2019-01-19T06:11:19.861Z,0.00
2019-01-19T06:12:19.875Z,0.00
2019-01-19T06:13:19.835Z,0.00
2019-01-19T06:14:19.798Z,0.00
2019-01-19T06:15:19.794Z,0.00
2019-01-19T06:16:19.815Z,0.00
2019-01-19T06:17:19.831Z,0.00
2019-01-19T06:18:19.915Z,0.00
2019-01-19T06:19:19.876Z,0.00
2019-01-19T06:21:19.974Z,0.00
2019-01-19T06:22:20.049Z,0.00
2019-01-19T06:23:20.214Z,0.00
2019-01-19T06:24:20.083Z,0.00
2019-01-19T06:25:19.984Z,0.00
2019-01-19T06:26:20.105Z,0.00
2019-01-19T06:27:20.009Z,0.00
2019-01-19T06:28:20.071Z,0.00
2019-01-19T06:29:20.045Z,0.00
2019-01-19T06:30:20.173Z,0.00
2019-01-19T06:31:20.187Z,0.00
2019-01-19T06:32:20.108Z,0.00
2019-01-19T06:33:20.223Z,0.00
2019-01-19T06:34:20.129Z,0.00
2019-01-19T06:35:20.254Z,0.00
2019-01-19T06:36:20.168Z,0.00
2019-01-19T06:37:20.189Z,0.00
2019-01-19T06:38:20.194Z,0.00
2019-01-19T06:39:20.323Z,0.00
2019-01-19T06:40:20.390Z,0.00
2019-01-19T06:41:20.353Z,0.00
2019-01-19T06:42:20.367Z,0.00
2019-01-19T06:43:20.387Z,0.00
2019-01-19T06:44:20.406Z,0.00
2019-01-19T06:45:20.523Z,0.00
2019-01-19T06:46:20.320Z,0.00
2019-01-19T06:47:20.461Z,0.00
2019-01-19T06:48:20.362Z,0.00
2019-01-19T06:49:20.368Z,0.00
2019-01-19T06:50:20.561Z,0.00
2019-01-19T06:51:20.418Z,0.00
2019-01-19T06:52:20.534Z,0.00
2019-01-19T06:53:20.438Z,0.00
2019-01-19T06:54:20.568Z,0.00
2019-01-19T06:55:20.734Z,0.00
2019-01-19T06:56:20.501Z,0.00
2019-01-19T06:57:20.616Z,0.00
2019-01-19T06:58:20.525Z,0.00
2019-01-19T06:59:20.542Z,0.00
2019-01-19T07:00:20.718Z,0.00
2019-01-19T07:01:20.692Z,0.00
2019-01-19T07:02:20.589Z,0.00
2019-01-19T07:03:20.711Z,0.00
2019-01-19T07:04:20.617Z,0.00
2019-01-19T07:05:20.730Z,0.00
2019-01-19T07:06:20.765Z,0.00
2019-01-19T07:07:20.786Z,0.00
2019-01-19T07:08:20.696Z,0.00
2019-01-19T07:09:20.684Z,0.00
2019-01-19T07:10:20.787Z,0.00
2019-01-19T07:11:20.840Z,0.00
2019-01-19T07:12:20.723Z,0.00
2019-01-19T07:13:20.804Z,0.00
2019-01-19T07:14:20.795Z,0.00
2019-01-19T07:15:20.952Z,0.00
2019-01-19T07:16:20.813Z,0.00
2019-01-19T07:17:20.937Z,0.00
2019-01-19T07:18:20.832Z,0.00
2019-01-19T07:19:20.973Z,0.00
2019-01-19T07:20:20.926Z,0.00
2019-01-19T07:21:21.019Z,0.00
2019-01-19T07:22:20.904Z,0.00
2019-01-19T07:23:20.911Z,0.00
2019-01-19T07:24:21.042Z,0.00
2019-01-19T07:25:20.965Z,0.00
2019-01-19T07:26:20.980Z,0.00
2019-01-19T07:27:20.980Z,0.00
2019-01-19T07:28:21.022Z,0.00
2019-01-19T07:29:21.293Z,0.00
2019-01-19T07:30:21.055Z,0.00
2019-01-19T07:31:21.073Z,0.00
2019-01-19T07:32:21.068Z,0.00
2019-01-19T07:33:21.121Z,0.00
2019-01-19T07:34:21.373Z,0.00
2019-01-19T07:35:21.228Z,0.00
2019-01-19T07:36:21.130Z,0.00
2019-01-19T07:37:21.272Z,0.00
2019-01-19T07:38:21.191Z,0.00
2019-01-19T07:39:21.359Z,0.00
2019-01-19T07:40:21.310Z,0.00
2019-01-19T07:41:21.224Z,0.00
2019-01-19T07:42:21.247Z,0.00
2019-01-19T07:43:21.363Z,0.00
2019-01-19T07:44:21.425Z,0.00
2019-01-19T07:45:21.274Z,0.00
2019-01-19T07:46:21.414Z,0.00
2019-01-19T07:47:21.311Z,0.00
2019-01-19T07:48:21.326Z,0.00
2019-01-19T07:49:21.450Z,0.00
2019-01-19T07:50:21.357Z,0.00
2019-01-19T07:51:21.492Z,0.00
2019-01-19T07:52:21.430Z,0.00
2019-01-19T07:53:21.531Z,0.00
2019-01-19T07:54:21.594Z,0.00
2019-01-19T07:55:21.435Z,0.00
2019-01-19T07:56:21.455Z,0.00
2019-01-19T07:57:21.490Z,0.00
2019-01-19T07:58:21.486Z,0.00
2019-01-19T07:59:21.770Z,0.00
2019-01-19T08:00:21.927Z,0.00
2019-01-19T08:01:21.650Z,0.00
2019-01-19T08:02:21.671Z,0.00
2019-01-19T08:03:21.571Z,0.00
2019-01-19T08:04:21.699Z,0.00
2019-01-19T08:05:21.782Z,0.00
2019-01-19T08:06:21.733Z,0.00
2019-01-19T08:07:21.626Z,0.00
2019-01-19T08:08:21.661Z,0.00
2019-01-19T08:09:21.707Z,0.00
2019-01-19T08:10:21.745Z,4.00
2019-01-19T08:11:21.824Z,0.00
2019-01-19T08:12:21.729Z,0.00
2019-01-19T08:13:21.745Z,4.00
2019-01-19T08:14:21.864Z,4.00
2019-01-19T08:15:21.933Z,0.00
2019-01-19T08:16:21.786Z,8.00
2019-01-19T08:17:21.801Z,4.00
2019-01-19T08:18:21.836Z,8.00
2019-01-19T08:19:21.944Z,8.00
2019-01-19T08:20:22.006Z,12.00
2019-01-19T08:21:21.884Z,12.00
2019-01-19T08:22:21.894Z,16.00
2019-01-19T08:23:22.010Z,20.00
2019-01-19T08:24:22.030Z,28.00
2019-01-19T08:25:22.093Z,36.00
2019-01-19T08:26:21.930Z,44.00
2019-01-19T08:27:21.952Z,60.00
2019-01-19T08:28:22.099Z,76.00
2019-01-19T08:29:21.990Z,92.00
2019-01-19T08:30:22.058Z,108.00
2019-01-19T08:31:22.091Z,128.00
2019-01-19T08:32:22.029Z,140.00
2019-01-19T08:33:22.045Z,144.00
2019-01-19T08:34:22.110Z,144.00
2019-01-19T08:35:22.097Z,152.00
2019-01-19T08:36:22.113Z,164.00
2019-01-19T08:37:24.565Z,184.00
2019-01-19T08:38:22.127Z,204.00
2019-01-19T08:39:22.193Z,228.00
2019-01-19T08:40:22.158Z,252.00
2019-01-19T08:41:22.194Z,276.00
2019-01-19T08:42:22.313Z,308.00
2019-01-19T08:43:22.195Z,344.00
2019-01-19T08:44:22.400Z,388.00
2019-01-19T08:45:22.266Z,440.00
2019-01-19T08:46:22.314Z,488.00
2019-01-19T08:47:22.287Z,540.00
2019-01-19T08:48:22.303Z,608.00
2019-01-19T08:49:22.545Z,684.00
2019-01-19T08:50:22.327Z,780.00
2019-01-19T08:51:22.354Z,912.00
2019-01-19T08:52:22.368Z,1008.00
2019-01-19T08:53:22.384Z,1072.00
2019-01-19T08:54:22.540Z,1136.00
2019-01-19T08:55:22.527Z,1196.00
2019-01-19T08:56:22.543Z,1256.00
2019-01-19T08:57:22.442Z,1336.00
2019-01-19T08:58:22.474Z,1456.00
2019-01-19T08:59:22.614Z,1648.00
2019-01-19T09:00:22.485Z,1884.00
2019-01-19T09:01:22.513Z,2128.00
2019-01-19T09:02:22.552Z,2636.00
2019-01-19T09:03:22.664Z,3220.00
2019-01-19T09:04:22.617Z,3288.00
2019-01-19T09:05:22.586Z,3080.00
2019-01-19T09:06:22.715Z,3008.00
2019-01-19T09:07:22.612Z,2820.00
2019-01-19T09:08:22.742Z,2560.00
2019-01-19T09:09:22.797Z,2272.00
2019-01-19T09:10:22.776Z,2236.00
2019-01-19T09:11:22.790Z,2296.00
2019-01-19T09:12:22.710Z,2376.00
2019-01-19T09:13:22.828Z,2476.00
2019-01-19T09:14:22.790Z,2584.00
2019-01-19T09:15:22.732Z,2696.00
2019-01-19T09:16:22.756Z,2816.00
2019-01-19T09:17:22.895Z,2940.00
2019-01-19T09:18:22.851Z,3072.00
2019-01-19T09:19:22.901Z,3208.00
2019-01-19T09:20:22.820Z,3340.00
2019-01-19T09:21:22.871Z,3488.00
2019-01-19T09:22:22.859Z,3636.00
2019-01-19T09:23:22.893Z,3784.00
2019-01-19T09:24:23.065Z,3928.00
2019-01-19T09:25:22.960Z,4084.00
2019-01-19T09:26:22.949Z,4240.00
2019-01-19T09:27:23.120Z,4408.00
2019-01-19T09:28:23.093Z,4592.00
2019-01-19T09:29:23.112Z,4796.00
2019-01-19T09:30:23.124Z,4996.00
2019-01-19T09:31:23.017Z,5228.00
2019-01-19T09:32:23.216Z,5448.00
2019-01-19T09:33:23.181Z,5684.00
2019-01-19T09:34:23.067Z,5924.00
2019-01-19T09:35:23.208Z,6172.00
2019-01-19T09:36:23.230Z,6408.00
2019-01-19T09:37:23.138Z,6640.00
2019-01-19T09:38:23.287Z,6944.00
2019-01-19T09:39:23.278Z,7136.00
2019-01-19T09:40:23.232Z,7276.00
2019-01-19T09:41:23.320Z,7424.00
2019-01-19T09:42:23.234Z,7504.00
2019-01-19T09:43:23.342Z,7644.00
2019-01-19T09:44:23.242Z,7804.00
2019-01-19T09:45:23.266Z,8084.00
2019-01-19T09:46:23.292Z,8324.00
2019-01-19T09:47:23.296Z,8532.00
2019-01-19T09:48:23.471Z,8652.00
2019-01-19T09:49:23.457Z,8756.00
2019-01-19T09:50:23.355Z,8776.00
2019-01-19T09:51:23.488Z,8852.00
2019-01-19T09:52:23.416Z,9092.00
2019-01-19T09:53:23.472Z,9576.00
2019-01-19T09:54:24.911Z,10052.00
2019-01-19T09:55:23.453Z,10340.00
2019-01-19T09:56:23.577Z,10568.00
2019-01-19T09:57:23.481Z,11056.00
2019-01-19T09:58:23.554Z,12348.00
2019-01-19T09:59:23.633Z,14336.00
2019-01-19T10:00:23.578Z,15704.00
2019-01-19T10:01:23.554Z,16896.00
2019-01-19T10:02:23.690Z,16512.00
2019-01-19T10:03:23.589Z,14984.00
2019-01-19T10:04:23.615Z,13936.00
2019-01-19T10:05:23.857Z,13868.00
2019-01-19T10:06:23.776Z,14892.00
2019-01-19T10:07:23.779Z,17760.00
2019-01-19T10:08:23.668Z,21024.00
2019-01-19T10:09:23.710Z,24896.00
2019-01-19T10:10:23.781Z,32032.00
2019-01-19T10:11:23.852Z,36800.00
2019-01-19T10:12:23.848Z,36480.00
2019-01-19T10:13:23.900Z,35264.00
2019-01-19T10:14:23.806Z,34816.00
2019-01-19T10:15:23.941Z,36000.00
2019-01-19T10:16:23.825Z,33312.00
2019-01-19T10:17:23.898Z,35072.00
2019-01-19T10:18:23.863Z,36704.00
2019-01-19T10:19:23.884Z,34400.00
2019-01-19T10:20:24.023Z,34880.00
2019-01-19T10:21:24.075Z,40416.00
2019-01-19T10:22:24.061Z,50560.00
2019-01-19T10:23:24.086Z,61024.00
2019-01-19T10:24:23.978Z,69888.00
2019-01-19T10:25:24.125Z,69824.00
2019-01-19T10:26:24.136Z,70720.00
2019-01-19T10:27:24.170Z,75584.00
2019-01-19T10:28:24.060Z,76096.00
2019-01-19T10:29:24.100Z,77792.00
2019-01-19T10:30:24.229Z,74944.00
2019-01-19T10:31:24.336Z,71520.00
2019-01-19T10:32:24.257Z,78880.00
2019-01-19T10:33:24.173Z,82272.00
2019-01-19T10:34:24.310Z,80000.00
2019-01-19T10:35:24.245Z,80288.00
2019-01-19T10:36:24.871Z,77280.00
2019-01-19T10:37:24.262Z,78272.00
2019-01-19T10:38:24.282Z,84096.00
2019-01-19T10:39:24.407Z,83520.00
2019-01-19T10:40:24.314Z,81472.00
2019-01-19T10:41:24.385Z,83072.00
2019-01-19T10:42:24.366Z,85152.00
2019-01-19T10:43:24.405Z,83552.00
2019-01-19T10:44:24.390Z,83008.00
2019-01-19T10:45:24.456Z,85536.00
2019-01-19T10:46:24.483Z,87680.00
2019-01-19T10:47:24.499Z,83200.00
2019-01-19T10:48:24.483Z,82528.00
2019-01-19T10:49:24.523Z,84096.00
2019-01-19T10:50:24.532Z,84672.00
2019-01-19T10:51:24.725Z,88256.00
2019-01-19T10:52:24.591Z,83200.00
2019-01-19T10:53:24.622Z,81152.00
2019-01-19T10:54:24.636Z,87744.00
2019-01-19T10:55:24.664Z,86752.00
2019-01-19T10:56:24.722Z,89120.00
2019-01-19T10:57:24.830Z,89856.00
2019-01-19T10:58:24.732Z,87168.00
2019-01-19T10:59:24.749Z,86912.00
2019-01-19T11:00:24.772Z,89248.00
2019-01-19T11:01:24.957Z,92256.00
2019-01-19T11:02:24.824Z,87552.00
2019-01-19T11:03:24.970Z,85760.00
2019-01-19T11:04:24.986Z,90080.00
2019-01-19T11:05:24.885Z,89312.00
2019-01-19T11:06:25.090Z,86912.00
2019-01-19T11:07:24.951Z,85504.00
2019-01-19T11:08:24.964Z,87840.00
2019-01-19T11:09:25.069Z,88032.00
2019-01-19T11:10:25.083Z,88352.00
2019-01-19T11:11:25.174Z,89120.00
2019-01-19T11:12:25.065Z,88736.00
2019-01-19T11:13:25.098Z,94464.00
2019-01-19T11:14:25.121Z,92832.00
2019-01-19T11:15:25.208Z,90912.00
2019-01-19T11:16:25.181Z,92416.00
2019-01-19T11:17:25.218Z,89568.00
2019-01-19T11:18:25.337Z,88480.00
2019-01-19T11:19:25.266Z,93568.00
2019-01-19T11:20:25.695Z,92160.00
2019-01-19T11:21:25.308Z,90720.00
2019-01-19T11:22:25.326Z,93760.00
2019-01-19T11:23:25.345Z,88832.00
2019-01-19T11:24:25.368Z,86624.00
2019-01-19T11:25:25.622Z,82912.00
2019-01-19T11:26:25.545Z,84128.00
2019-01-19T11:27:25.585Z,85856.00
2019-01-19T11:28:25.597Z,84544.00
2019-01-19T11:29:25.628Z,87232.00
2019-01-19T11:30:25.747Z,86272.00
2019-01-19T11:31:25.575Z,88992.00
2019-01-19T11:32:25.577Z,93216.00
2019-01-19T11:33:25.610Z,90752.00
2019-01-19T11:34:25.640Z,88448.00
2019-01-19T11:35:25.805Z,86016.00
2019-01-19T11:36:25.681Z,88288.00
2019-01-19T11:37:25.838Z,91136.00
2019-01-19T11:38:25.760Z,89888.00
2019-01-19T11:39:25.774Z,92704.00
2019-01-19T11:40:25.833Z,93472.00
2019-01-19T11:41:25.840Z,91648.00
2019-01-19T11:43:25.868Z,86720.00
2019-01-19T11:44:25.928Z,87168.00
2019-01-19T11:45:26.034Z,89792.00
2019-01-19T11:46:25.958Z,93440.00
2019-01-19T11:47:25.977Z,91648.00
2019-01-19T11:48:26.024Z,90016.00
2019-01-19T11:49:26.031Z,91712.00
2019-01-19T11:50:26.116Z,93600.00
2019-01-19T11:51:26.218Z,93536.00
2019-01-19T11:52:26.107Z,91424.00
2019-01-19T11:53:26.138Z,89856.00
2019-01-19T11:54:26.168Z,90432.00
2019-01-19T11:55:26.363Z,88512.00
2019-01-19T11:56:26.241Z,89536.00
2019-01-19T11:57:26.270Z,87616.00
2019-01-19T11:58:26.276Z,88768.00
2019-01-19T11:59:26.304Z,90560.00
2019-01-19T12:00:26.430Z,91296.00
2019-01-19T12:01:26.372Z,90560.00
2019-01-19T12:02:26.385Z,90016.00
2019-01-19T12:03:26.431Z,89216.00
2019-01-19T12:04:26.459Z,87424.00
2019-01-19T12:05:26.518Z,90656.00
2019-01-19T12:06:26.490Z,90720.00
2019-01-19T12:07:26.530Z,87392.00
2019-01-19T12:08:26.569Z,88032.00
2019-01-19T12:09:26.706Z,88832.00
2019-01-19T12:10:26.716Z,89472.00
2019-01-19T12:11:26.761Z,91040.00
2019-01-19T12:12:26.790Z,91552.00
2019-01-19T12:13:26.817Z,88032.00
2019-01-19T12:14:26.730Z,85408.00
2019-01-19T12:15:26.844Z,84288.00
2019-01-19T12:16:26.777Z,88032.00
2019-01-19T12:17:26.813Z,88352.00
2019-01-19T12:18:26.833Z,87744.00
2019-01-19T12:19:26.856Z,86304.00
2019-01-19T12:20:26.956Z,86688.00
2019-01-19T12:21:26.905Z,87456.00
2019-01-19T12:22:26.938Z,85952.00
2019-01-19T12:23:26.978Z,86112.00
2019-01-19T12:24:27.106Z,87008.00
2019-01-19T12:25:27.048Z,84992.00
2019-01-19T12:26:27.071Z,83968.00
2019-01-19T12:27:27.083Z,81888.00
2019-01-19T12:28:27.129Z,84736.00
2019-01-19T12:29:27.245Z,85792.00
2019-01-19T12:30:27.165Z,85120.00
2019-01-19T12:31:27.213Z,84032.00
2019-01-19T12:32:27.349Z,81792.00
2019-01-19T12:33:27.242Z,80512.00
2019-01-19T12:34:27.371Z,84544.00
2019-01-19T12:35:27.305Z,84192.00
2019-01-19T12:36:27.358Z,83008.00
2019-01-19T12:37:27.362Z,85440.00
2019-01-19T12:38:27.391Z,87040.00
2019-01-19T12:39:27.495Z,86080.00
2019-01-19T12:40:27.470Z,87328.00
2019-01-19T12:41:27.500Z,85024.00
2019-01-19T12:42:27.506Z,84928.00
2019-01-19T12:43:27.555Z,85088.00
2019-01-19T12:44:27.794Z,84576.00
2019-01-19T12:45:27.595Z,86176.00
2019-01-19T12:46:27.653Z,85952.00
2019-01-19T12:47:27.650Z,84800.00
2019-01-19T12:48:27.683Z,87680.00
2019-01-19T12:49:27.831Z,86112.00